createdAt,value
2019-03-29T00:00:29.188Z,73.60
2019-03-29T00:02:58.029Z,73.10
2019-03-29T00:05:26.885Z,73.00
2019-03-29T00:07:55.779Z,73.30
2019-03-29T00:10:24.652Z,73.70
2019-03-29T00:12:53.505Z,73.90
2019-03-29T00:15:22.430Z,73.90
2019-03-29T00:17:51.285Z,73.80
2019-03-29T00:20:20.183Z,73.90
2019-03-29T00:22:49.346Z,74.10
2019-03-29T00:25:18.201Z,74.50
2019-03-29T00:27:47.064Z,74.70
2019-03-29T00:30:15.978Z,74.90
2019-03-29T00:32:44.811Z,75.20
2019-03-29T00:35:13.772Z,74.90
2019-03-29T00:37:52.722Z,74.90
2019-03-29T00:40:13.378Z,75.80
2019-03-29T00:42:42.974Z,75.40
2019-03-29T00:45:12.242Z,75.40
2019-03-29T00:47:41.081Z,75.50
2019-03-29T00:50:09.943Z,75.50
2019-03-29T00:52:38.830Z,75.60
2019-03-29T00:55:07.779Z,75.60
2019-03-29T00:57:36.644Z,75.80
2019-03-29T01:00:07.546Z,75.80
2019-03-29T01:02:36.395Z,75.90
2019-03-29T01:05:06.735Z,76.10
2019-03-29T01:07:46.175Z,75.90
2019-03-29T01:10:15.342Z,76.30
2019-03-29T01:12:44.232Z,76.60
2019-03-29T01:15:13.174Z,76.60
2019-03-29T01:17:42.010Z,76.70
2019-03-29T01:20:11.727Z,76.90
2019-03-29T01:22:40.551Z,77.50
2019-03-29T01:25:09.589Z,77.20
2019-03-29T01:27:38.488Z,77.20
2019-03-29T01:30:08.047Z,77.30
2019-03-29T01:32:36.897Z,77.60
2019-03-29T01:35:08.331Z,77.90
2019-03-29T01:37:38.024Z,78.00
2019-03-29T01:40:08.904Z,77.90
2019-03-29T01:42:37.986Z,77.80
2019-03-29T01:45:08.750Z,77.80
2019-03-29T01:47:37.614Z,78.00
2019-03-29T01:50:08.177Z,77.80
2019-03-29T01:52:37.331Z,77.60
2019-03-29T01:55:07.169Z,77.60
2019-03-29T01:57:36.074Z,78.20
2019-03-29T02:00:06.425Z,78.10
2019-03-29T02:02:35.269Z,78.00
2019-03-29T02:05:06.978Z,78.00
2019-03-29T02:07:35.821Z,78.10
2019-03-29T02:10:09.958Z,78.10
2019-03-29T02:12:38.843Z,78.10
2019-03-29T02:15:08.786Z,78.40
2019-03-29T02:17:38.128Z,78.10
2019-03-29T02:20:07.832Z,78.10
2019-03-29T02:22:37.105Z,78.40
2019-03-29T02:25:07.982Z,78.40
2019-03-29T02:27:36.963Z,78.40
2019-03-29T02:30:06.430Z,78.40
2019-03-29T02:32:35.324Z,78.50
2019-03-29T02:35:04.510Z,78.50
2019-03-29T02:37:33.350Z,78.60
2019-03-29T02:40:02.206Z,78.90
2019-03-29T02:42:31.069Z,79.10
2019-03-29T02:44:59.946Z,79.70
2019-03-29T02:47:28.787Z,79.10
2019-03-29T02:49:57.688Z,79.10
2019-03-29T02:52:26.535Z,79.20
2019-03-29T02:54:55.377Z,79.60
2019-03-29T02:57:24.277Z,79.40
2019-03-29T02:59:53.115Z,79.40
2019-03-29T03:02:26.058Z,79.60
2019-03-29T03:04:52.515Z,79.80
2019-03-29T03:07:21.356Z,80.50
2019-03-29T03:09:50.209Z,79.90
2019-03-29T03:12:19.104Z,80.60
2019-03-29T03:14:47.944Z,80.00
2019-03-29T03:17:16.801Z,79.90
2019-03-29T03:19:45.693Z,79.80
2019-03-29T03:22:14.542Z,79.90
2019-03-29T03:24:43.378Z,79.90
2019-03-29T03:27:12.307Z,79.90
2019-03-29T03:29:41.100Z,80.00
2019-03-29T03:32:09.967Z,80.30
2019-03-29T03:34:38.865Z,80.80
2019-03-29T03:37:07.716Z,80.80
2019-03-29T03:39:36.570Z,80.90
2019-03-29T03:42:05.565Z,80.70
2019-03-29T03:44:34.417Z,80.80
2019-03-29T03:47:03.254Z,80.70
2019-03-29T03:49:32.130Z,80.90
2019-03-29T03:52:01.042Z,81.00
2019-03-29T03:54:29.892Z,81.00
2019-03-29T03:56:59.185Z,81.00
2019-03-29T03:59:29.493Z,80.50
2019-03-29T04:01:58.333Z,80.60
2019-03-29T04:04:27.440Z,80.90
2019-03-29T04:06:56.275Z,80.90
2019-03-29T04:09:25.091Z,80.90
2019-03-29T04:11:53.972Z,81.20
2019-03-29T04:14:22.826Z,81.60
2019-03-29T04:16:51.688Z,81.80
2019-03-29T04:19:20.625Z,81.80
2019-03-29T04:21:49.480Z,81.90
2019-03-29T04:24:18.569Z,81.90
2019-03-29T04:26:47.474Z,81.90
2019-03-29T04:29:16.337Z,81.90
2019-03-29T04:31:45.155Z,82.00
2019-03-29T04:34:14.076Z,81.90
2019-03-29T04:36:42.955Z,81.90
2019-03-29T04:39:11.779Z,81.80
2019-03-29T04:41:40.670Z,81.60
2019-03-29T04:44:09.516Z,81.20
2019-03-29T04:46:38.364Z,81.00
2019-03-29T04:49:07.489Z,81.00
2019-03-29T04:51:36.307Z,80.90
2019-03-29T04:54:05.179Z,81.00
2019-03-29T04:56:34.106Z,81.30
2019-03-29T04:59:02.960Z,81.50
2019-03-29T05:01:31.821Z,81.60
2019-03-29T05:04:00.688Z,81.10
2019-03-29T05:06:29.535Z,81.20
2019-03-29T05:08:58.374Z,81.30
2019-03-29T05:11:27.489Z,81.00
2019-03-29T05:13:56.338Z,80.70
2019-03-29T05:16:25.175Z,80.70
2019-03-29T05:18:54.086Z,80.70
2019-03-29T05:21:22.982Z,81.20
2019-03-29T05:23:51.774Z,80.30
2019-03-29T05:26:20.674Z,80.20
2019-03-29T05:28:49.512Z,80.00
2019-03-29T05:31:18.371Z,79.80
2019-03-29T05:33:47.481Z,79.60
2019-03-29T05:36:16.320Z,79.60
2019-03-29T05:38:45.182Z,79.60
2019-03-29T05:41:14.120Z,79.20
2019-03-29T05:43:43.007Z,78.90
2019-03-29T05:46:11.853Z,78.90
2019-03-29T05:48:40.756Z,78.70
2019-03-29T05:51:09.637Z,78.60
2019-03-29T05:53:38.449Z,78.60
2019-03-29T05:56:08.328Z,78.30
2019-03-29T05:58:37.188Z,78.00
2019-03-29T06:01:06.028Z,77.90
2019-03-29T06:03:34.931Z,77.40
2019-03-29T06:06:03.766Z,76.90
2019-03-29T06:08:32.624Z,76.60
2019-03-29T06:11:03.006Z,76.30
2019-03-29T06:13:32.077Z,76.20
2019-03-29T06:16:06.181Z,75.50
2019-03-29T06:18:35.000Z,74.80
2019-03-29T06:21:03.866Z,74.80
2019-03-29T06:23:32.707Z,74.40
2019-03-29T06:26:01.590Z,74.10
2019-03-29T06:28:30.462Z,73.40
2019-03-29T06:30:59.436Z,72.80
2019-03-29T06:33:28.652Z,72.20
2019-03-29T06:35:59.011Z,71.30
2019-03-29T06:38:29.480Z,70.60
2019-03-29T06:41:03.304Z,70.30
2019-03-29T06:43:29.047Z,69.60
2019-03-29T06:45:58.085Z,63.90
2019-03-29T06:48:26.972Z,53.50
2019-03-29T06:50:55.811Z,46.50
2019-03-29T06:53:24.661Z,45.00
2019-03-29T06:55:53.587Z,43.20
2019-03-29T06:58:23.260Z,42.00
2019-03-29T07:00:52.129Z,37.50
2019-03-29T07:03:21.250Z,34.30
2019-03-29T07:05:50.096Z,33.20
2019-03-29T07:08:18.973Z,32.00
2019-03-29T07:10:47.856Z,31.40
2019-03-29T07:13:16.714Z,30.60
2019-03-29T07:15:45.544Z,30.20
2019-03-29T07:18:14.455Z,30.50
2019-03-29T07:20:43.321Z,30.20
2019-03-29T07:23:12.161Z,29.80
2019-03-29T07:25:41.103Z,29.80
2019-03-29T07:28:09.948Z,30.20
2019-03-29T07:30:38.791Z,29.90
2019-03-29T07:33:07.889Z,29.60
2019-03-29T07:35:38.206Z,29.40
2019-03-29T07:38:07.059Z,29.40
2019-03-29T07:40:35.929Z,29.40
2019-03-29T07:43:06.877Z,29.00
2019-03-29T07:45:35.914Z,29.00
2019-03-29T07:48:04.841Z,29.00
2019-03-29T07:50:38.078Z,28.60
2019-03-29T07:53:06.936Z,28.90
2019-03-29T07:55:37.445Z,29.50
2019-03-29T07:58:06.506Z,30.20
2019-03-29T08:00:35.346Z,30.30
2019-03-29T08:03:04.281Z,30.40
2019-03-29T08:05:35.408Z,31.00
2019-03-29T08:08:05.928Z,30.50
2019-03-29T08:10:34.963Z,29.90
2019-03-29T08:13:05.760Z,29.60
2019-03-29T08:15:34.629Z,29.90
2019-03-29T08:18:03.747Z,30.00
2019-03-29T08:20:43.799Z,29.20
2019-03-29T08:23:03.217Z,28.80
2019-03-29T08:25:32.120Z,29.30
2019-03-29T08:28:00.964Z,28.70
2019-03-29T08:30:29.800Z,28.30
2019-03-29T08:32:58.717Z,28.10
2019-03-29T08:35:27.724Z,28.30
2019-03-29T08:37:56.614Z,28.30
2019-03-29T08:40:25.547Z,28.40
2019-03-29T08:42:54.445Z,28.30
2019-03-29T08:45:23.296Z,27.50
2019-03-29T08:47:52.230Z,27.20
2019-03-29T08:50:21.086Z,27.70
2019-03-29T08:52:50.325Z,28.10
2019-03-29T08:55:19.910Z,27.80
2019-03-29T08:57:48.881Z,28.10
2019-03-29T09:00:20.677Z,27.70
2019-03-29T09:02:51.268Z,27.40
2019-03-29T09:05:20.120Z,27.50
2019-03-29T09:07:49.380Z,27.30
2019-03-29T09:10:27.896Z,27.00
2019-03-29T09:12:56.758Z,26.70
2019-03-29T09:15:25.647Z,26.30
2019-03-29T09:17:54.539Z,27.10
2019-03-29T09:20:23.379Z,29.80
2019-03-29T09:22:52.222Z,33.30
2019-03-29T09:25:21.325Z,35.40
2019-03-29T09:27:50.264Z,35.70
2019-03-29T09:30:38.461Z,34.40
2019-03-29T09:33:07.308Z,33.30
2019-03-29T09:35:36.165Z,33.00
2019-03-29T09:38:05.153Z,34.20
2019-03-29T09:40:34.029Z,35.50
2019-03-29T09:43:10.085Z,32.60
2019-03-29T09:45:33.434Z,30.10
2019-03-29T09:48:02.280Z,30.00
2019-03-29T09:50:31.231Z,30.60
2019-03-29T09:53:01.466Z,31.30
2019-03-29T09:55:30.722Z,32.00
2019-03-29T09:57:59.654Z,33.70
2019-03-29T10:00:28.525Z,31.50
2019-03-29T10:02:57.381Z,31.20
2019-03-29T10:05:26.249Z,29.80
2019-03-29T10:07:55.135Z,27.30
2019-03-29T10:10:23.978Z,26.10
2019-03-29T10:12:52.834Z,26.20
2019-03-29T10:15:21.786Z,26.30
2019-03-29T10:17:50.645Z,25.40
2019-03-29T10:20:19.499Z,24.60
2019-03-29T10:22:48.382Z,25.00
2019-03-29T10:25:19.513Z,27.20
2019-03-29T10:27:47.732Z,29.00
2019-03-29T10:30:19.599Z,29.70
2019-03-29T10:32:48.545Z,30.50
2019-03-29T10:35:17.370Z,31.20
2019-03-29T10:37:46.278Z,32.10
2019-03-29T10:40:15.102Z,33.20
2019-03-29T10:42:57.034Z,33.80
2019-03-29T10:45:14.692Z,34.50
2019-03-29T10:47:44.332Z,34.50
2019-03-29T10:50:17.190Z,33.80
2019-03-29T10:52:46.204Z,34.30
2019-03-29T10:55:15.164Z,34.60
2019-03-29T10:57:44.418Z,34.40
2019-03-29T11:00:16.862Z,34.30
2019-03-29T11:02:45.708Z,33.80
2019-03-29T11:05:14.543Z,34.80
2019-03-29T11:07:43.435Z,34.80
2019-03-29T11:10:32.797Z,34.50
2019-03-29T11:13:12.878Z,34.00
2019-03-29T11:15:32.318Z,34.40
2019-03-29T11:18:01.146Z,34.70
2019-03-29T11:20:30.028Z,35.20
2019-03-29T11:22:58.897Z,35.90
2019-03-29T11:25:27.753Z,35.10
2019-03-29T11:27:56.637Z,36.40
2019-03-29T11:30:25.472Z,35.80
2019-03-29T11:32:54.307Z,36.30
2019-03-29T11:35:23.225Z,35.60
2019-03-29T11:37:52.170Z,35.80
2019-03-29T11:40:21.105Z,36.60
2019-03-29T11:42:50.018Z,36.00
2019-03-29T11:45:18.967Z,36.00
2019-03-29T11:47:47.791Z,37.10
2019-03-29T11:50:16.783Z,37.30
2019-03-29T11:52:48.379Z,37.90
2019-03-29T11:55:17.221Z,38.50
2019-03-29T11:57:46.140Z,38.50
2019-03-29T12:00:16.917Z,38.40
2019-03-29T12:02:45.816Z,38.30
2019-03-29T12:05:14.704Z,38.00
2019-03-29T12:07:43.572Z,38.20
2019-03-29T12:10:12.406Z,38.80
2019-03-29T12:12:41.313Z,39.30
2019-03-29T12:15:10.587Z,39.50
2019-03-29T12:17:39.430Z,39.10
2019-03-29T12:20:08.355Z,38.20
2019-03-29T12:22:37.209Z,38.00
2019-03-29T12:25:07.534Z,38.40
2019-03-29T12:27:36.413Z,38.60
2019-03-29T12:30:09.966Z,39.30
2019-03-29T12:32:38.809Z,40.10
2019-03-29T12:35:10.065Z,40.50
2019-03-29T12:37:38.888Z,39.90
2019-03-29T12:40:09.529Z,39.80
2019-03-29T12:42:38.441Z,39.40
2019-03-29T12:45:08.179Z,38.40
2019-03-29T12:47:37.037Z,38.50
2019-03-29T12:50:09.259Z,38.10
2019-03-29T12:52:38.103Z,37.70
2019-03-29T12:55:06.967Z,37.00
2019-03-29T12:57:38.713Z,36.50
2019-03-29T13:00:08.062Z,36.30
2019-03-29T13:02:36.920Z,36.70
2019-03-29T13:05:06.834Z,38.30
2019-03-29T13:07:35.762Z,38.20
2019-03-29T13:10:07.773Z,38.40
2019-03-29T13:12:36.705Z,39.50
2019-03-29T13:15:09.010Z,38.70
2019-03-29T13:17:38.061Z,38.50
2019-03-29T13:20:07.852Z,39.30
2019-03-29T13:22:36.701Z,39.40
2019-03-29T13:25:07.821Z,39.80
2019-03-29T13:27:36.785Z,40.50
2019-03-29T13:30:09.400Z,41.30
2019-03-29T13:32:38.258Z,40.40
2019-03-29T13:35:08.361Z,39.80
2019-03-29T13:37:37.210Z,40.00
2019-03-29T13:40:08.524Z,40.10
2019-03-29T13:42:37.451Z,40.10
2019-03-29T13:45:07.106Z,40.40
2019-03-29T13:47:36.546Z,40.40
2019-03-29T13:50:11.084Z,41.20
2019-03-29T13:52:39.948Z,40.50
2019-03-29T13:55:09.842Z,40.50
2019-03-29T13:57:38.780Z,40.30
2019-03-29T14:00:10.503Z,40.30
2019-03-29T14:02:39.647Z,39.70
2019-03-29T14:05:09.195Z,39.80
2019-03-29T14:07:38.030Z,40.30
2019-03-29T14:10:10.610Z,40.00
2019-03-29T14:12:40.202Z,39.60
2019-03-29T14:15:11.501Z,39.50
2019-03-29T14:17:40.381Z,39.00
2019-03-29T14:20:11.063Z,38.80
2019-03-29T14:22:39.939Z,38.80
2019-03-29T14:25:09.506Z,38.70
2019-03-29T14:27:38.403Z,38.90
2019-03-29T14:30:10.607Z,39.20
2019-03-29T14:32:40.425Z,39.30
2019-03-29T14:35:13.048Z,37.90
2019-03-29T14:37:41.591Z,36.50
2019-03-29T14:40:11.039Z,37.20
2019-03-29T14:42:39.959Z,37.00
2019-03-29T14:45:09.233Z,37.80
2019-03-29T14:47:43.341Z,38.50
2019-03-29T14:50:09.411Z,39.00
2019-03-29T14:52:38.248Z,39.60
2019-03-29T14:55:07.412Z,39.80
2019-03-29T14:57:36.600Z,39.40
2019-03-29T15:00:11.163Z,39.10
2019-03-29T15:02:40.066Z,39.00
2019-03-29T15:05:10.484Z,39.30
2019-03-29T15:07:41.308Z,39.20
2019-03-29T15:10:25.345Z,38.70
2019-03-29T15:12:55.490Z,37.90
2019-03-29T15:15:24.839Z,37.50
2019-03-29T15:17:53.824Z,37.00
2019-03-29T15:20:22.666Z,37.40
2019-03-29T15:22:51.461Z,37.40
2019-03-29T15:25:20.338Z,37.80
2019-03-29T15:27:49.188Z,37.90
2019-03-29T15:30:18.037Z,38.40
2019-03-29T15:32:46.968Z,39.00
2019-03-29T15:35:15.820Z,38.70
2019-03-29T15:37:44.667Z,38.80
2019-03-29T15:40:13.979Z,38.80
2019-03-29T15:42:42.849Z,38.60
2019-03-29T15:45:20.222Z,38.70
2019-03-29T15:47:42.447Z,38.40
2019-03-29T15:50:11.518Z,38.10
2019-03-29T15:52:40.376Z,38.10
2019-03-29T15:55:11.382Z,38.00
2019-03-29T15:57:39.863Z,37.60
2019-03-29T16:00:10.926Z,38.30
2019-03-29T16:02:39.850Z,38.10
2019-03-29T16:05:08.814Z,38.10
2019-03-29T16:07:37.675Z,38.40
2019-03-29T16:10:06.569Z,38.50
2019-03-29T16:12:35.408Z,38.90
2019-03-29T16:15:06.069Z,38.80
2019-03-29T16:17:34.987Z,39.00
2019-03-29T16:20:05.781Z,38.90
2019-03-29T16:22:35.241Z,39.00
2019-03-29T16:25:06.923Z,38.90
2019-03-29T16:27:35.780Z,39.20
2019-03-29T16:30:06.434Z,39.60
2019-03-29T16:32:35.620Z,39.70
2019-03-29T16:35:06.650Z,39.90
2019-03-29T16:37:35.560Z,40.00
2019-03-29T16:40:06.299Z,40.10
2019-03-29T16:42:35.151Z,40.20
2019-03-29T16:45:04.890Z,40.50
2019-03-29T16:47:33.832Z,40.50
2019-03-29T16:50:02.691Z,41.20
2019-03-29T16:52:31.552Z,40.60
2019-03-29T16:55:12.395Z,40.90
2019-03-29T16:57:30.941Z,41.00
2019-03-29T16:59:59.862Z,41.30
2019-03-29T17:02:28.758Z,41.20
2019-03-29T17:04:57.555Z,41.20
2019-03-29T17:07:26.388Z,41.40
2019-03-29T17:09:55.414Z,41.20
2019-03-29T17:12:24.268Z,41.20
2019-03-29T17:14:53.132Z,41.40
2019-03-29T17:17:22.016Z,41.70
2019-03-29T17:19:50.877Z,42.20
2019-03-29T17:22:20.533Z,43.90
2019-03-29T17:24:56.735Z,44.30
2019-03-29T17:27:19.970Z,44.70
2019-03-29T17:29:48.828Z,45.50
2019-03-29T17:32:18.002Z,46.00
2019-03-29T17:34:46.855Z,46.70
2019-03-29T17:37:15.734Z,47.20
2019-03-29T17:39:44.637Z,48.10
2019-03-29T17:42:13.531Z,47.90
2019-03-29T17:44:42.381Z,47.70
2019-03-29T17:47:11.333Z,48.20
2019-03-29T17:49:40.568Z,48.30
2019-03-29T17:52:09.417Z,48.50
2019-03-29T17:54:38.415Z,48.80
2019-03-29T17:57:07.348Z,48.40
2019-03-29T17:59:36.168Z,48.70
2019-03-29T18:02:09.686Z,49.20
2019-03-29T18:04:36.683Z,50.10
2019-03-29T18:07:05.970Z,51.40
2019-03-29T18:09:34.932Z,51.60
2019-03-29T18:12:03.890Z,52.40
2019-03-29T18:14:32.766Z,52.40
2019-03-29T18:17:01.708Z,53.40
2019-03-29T18:19:30.599Z,53.80
2019-03-29T18:22:08.230Z,54.30
2019-03-29T18:24:37.758Z,54.90
2019-03-29T18:27:06.603Z,54.50
2019-03-29T18:29:35.480Z,54.50
2019-03-29T18:32:07.212Z,54.70
2019-03-29T18:34:40.107Z,54.30
2019-03-29T18:37:08.506Z,55.00
2019-03-29T18:39:37.812Z,55.10
2019-03-29T18:42:09.570Z,56.10
2019-03-29T18:44:38.427Z,56.60
2019-03-29T18:47:07.820Z,56.60
2019-03-29T18:49:36.707Z,57.50
2019-03-29T18:52:05.598Z,59.20
2019-03-29T18:54:34.474Z,58.60
2019-03-29T18:57:03.479Z,59.60
2019-03-29T18:59:32.326Z,59.70
2019-03-29T19:02:09.674Z,59.60
2019-03-29T19:04:45.578Z,59.40
2019-03-29T19:07:14.539Z,59.40
2019-03-29T19:09:43.399Z,59.40
2019-03-29T19:12:12.283Z,59.60
2019-03-29T19:14:41.772Z,59.60
2019-03-29T19:17:10.939Z,59.70
2019-03-29T19:19:59.112Z,60.20
2019-03-29T19:22:28.074Z,61.00
2019-03-29T19:24:57.126Z,60.90
2019-03-29T19:27:26.104Z,60.30
2019-03-29T19:29:55.111Z,60.50
2019-03-29T19:32:23.970Z,60.80
2019-03-29T19:34:52.864Z,60.80
2019-03-29T19:37:21.716Z,61.30
2019-03-29T19:39:50.604Z,61.40
2019-03-29T19:42:19.497Z,62.30
2019-03-29T19:44:48.444Z,63.30
2019-03-29T19:47:17.320Z,63.20
2019-03-29T19:49:46.437Z,62.60
2019-03-29T19:52:15.314Z,62.90
2019-03-29T19:54:44.171Z,63.70
2019-03-29T19:57:13.152Z,63.90
2019-03-29T19:59:42.072Z,64.30
2019-03-29T20:02:10.895Z,64.90
2019-03-29T20:04:39.784Z,65.70
2019-03-29T20:07:26.157Z,65.80
2019-03-29T20:10:05.686Z,66.20
2019-03-29T20:12:34.540Z,66.30
2019-03-29T20:15:04.116Z,66.30
2019-03-29T20:17:32.973Z,66.30
2019-03-29T20:20:01.819Z,66.60
2019-03-29T20:22:30.652Z,67.20
2019-03-29T20:24:59.558Z,67.50
2019-03-29T20:27:28.435Z,67.70
2019-03-29T20:29:58.144Z,67.40
2019-03-29T20:32:27.428Z,67.60
2019-03-29T20:34:56.298Z,67.90
2019-03-29T20:37:25.135Z,67.70
2019-03-29T20:39:54.071Z,68.60
2019-03-29T20:42:24.903Z,68.20
2019-03-29T20:44:53.449Z,68.40
2019-03-29T20:47:22.364Z,69.10
2019-03-29T20:49:51.328Z,69.30
2019-03-29T20:52:20.197Z,70.10
2019-03-29T20:54:49.365Z,70.20
2019-03-29T20:57:37.498Z,70.50
2019-03-29T21:00:11.343Z,70.70
2019-03-29T21:02:40.200Z,70.60
2019-03-29T21:05:09.348Z,70.20
2019-03-29T21:07:38.282Z,70.00
2019-03-29T21:10:08.138Z,70.20
2019-03-29T21:12:37.144Z,70.50
2019-03-29T21:15:08.082Z,70.30
2019-03-29T21:17:37.587Z,70.70
2019-03-29T21:20:08.816Z,71.10
2019-03-29T21:22:38.340Z,71.60
2019-03-29T21:25:08.335Z,71.70
2019-03-29T21:27:37.636Z,71.70
2019-03-29T21:30:12.176Z,72.10
2019-03-29T21:32:41.269Z,72.40
2019-03-29T21:35:11.310Z,72.40
2019-03-29T21:37:40.382Z,72.20
2019-03-29T21:40:09.805Z,72.20
2019-03-29T21:42:38.662Z,72.40
2019-03-29T21:45:08.361Z,72.90
2019-03-29T21:47:37.212Z,73.70
2019-03-29T21:50:10.793Z,74.00
2019-03-29T21:52:39.808Z,74.30
2019-03-29T21:55:09.760Z,74.30
2019-03-29T21:57:38.610Z,74.60
2019-03-29T22:00:10.311Z,74.60
2019-03-29T22:02:39.161Z,74.60
2019-03-29T22:05:10.349Z,74.70
2019-03-29T22:07:39.905Z,75.60
2019-03-29T22:10:09.249Z,74.60
2019-03-29T22:12:38.120Z,74.80
2019-03-29T22:15:09.017Z,74.50
2019-03-29T22:17:38.195Z,74.30
2019-03-29T22:20:08.434Z,74.60
2019-03-29T22:22:37.741Z,75.00
2019-03-29T22:25:11.501Z,75.20
2019-03-29T22:27:40.440Z,75.30
2019-03-29T22:30:10.561Z,75.50
2019-03-29T22:32:39.457Z,75.70
2019-03-29T22:35:09.493Z,76.00
2019-03-29T22:37:45.900Z,76.10
2019-03-29T22:40:24.726Z,76.30
2019-03-29T22:42:53.529Z,76.10
2019-03-29T22:45:24.183Z,75.90
2019-03-29T22:47:53.045Z,75.50
2019-03-29T22:50:21.966Z,75.40
2019-03-29T22:52:53.093Z,75.60
2019-03-29T22:55:21.322Z,75.80
2019-03-29T22:57:50.214Z,75.80
2019-03-29T23:00:38.683Z,76.00
2019-03-29T23:03:08.404Z,76.50
2019-03-29T23:05:37.532Z,76.80
2019-03-29T23:08:06.480Z,76.80
2019-03-29T23:10:35.423Z,77.20
2019-03-29T23:13:04.510Z,77.30
2019-03-29T23:15:33.364Z,77.60
2019-03-29T23:18:02.281Z,77.80
2019-03-29T23:20:31.117Z,77.80
2019-03-29T23:22:59.969Z,78.00
2019-03-29T23:25:30.466Z,78.30
2019-03-29T23:28:03.915Z,78.30
2019-03-29T23:30:32.776Z,78.10
2019-03-29T23:33:01.729Z,78.00
2019-03-29T23:35:30.567Z,78.30
2019-03-29T23:37:59.777Z,78.60
2019-03-29T23:40:28.707Z,79.10
2019-03-29T23:42:57.656Z,79.30
2019-03-29T23:45:26.527Z,79.10
2019-03-29T23:47:55.412Z,79.30
2019-03-29T23:50:24.343Z,79.20
2019-03-29T23:52:53.243Z,79.10
2019-03-29T23:55:22.113Z,79.00
2019-03-29T23:57:50.929Z,78.90
